Time;durP1;ratioP1;P1;durP2;ratioP2;P2;SDS_P1;SDS_P2;PMS_P1;PMS_P2;Temp;Humidity;BMP_temperature;BMP_pressure;BME280_temperature;BME280_humidity;BME280_pressure;Samples;Min_cycle;Max_cycle;Signal;HPM_P1;HPM_P2
2021/12/31 00:00:40;;;;;;;5.68;5.05;;;;;;;4.56;100.00;96617.28;6177867;23;20019;-68
2021/12/31 00:03:05;;;;;;;7.97;6.90;;;;;;;4.49;100.00;96605.47;6178181;23;20009;-68
2021/12/31 00:05:31;;;;;;;17.45;9.88;;;;;;;4.46;100.00;96613.47;6135170;23;20425;-68
2021/12/31 00:07:56;;;;;;;9.77;6.88;;;;;;;4.43;100.00;96622.31;6147293;23;20005;-69
2021/12/31 00:10:22;;;;;;;6.65;5.82;;;;;;;4.47;100.00;96614.31;6147490;23;19997;-68
2021/12/31 00:12:47;;;;;;;7.88;5.90;;;;;;;4.44;100.00;96617.94;6147599;23;20036;-69
2021/12/31 00:15:13;;;;;;;6.32;5.22;;;;;;;4.39;100.00;96609.50;6147382;23;19997;-69
2021/12/31 00:17:39;;;;;;;13.57;10.48;;;;;;;4.37;100.00;96613.97;6121137;23;20020;-68
2021/12/31 00:20:12;;;;;;;12.50;10.90;;;;;;;4.33;100.00;96620.28;6146827;23;20017;-69
2021/12/31 00:25:19;;;;;;;8.25;6.82;;;;;;;4.27;100.00;96622.25;6147450;23;20089;-69
2021/12/31 00:27:44;;;;;;;7.53;6.30;;;;;;;4.24;100.00;96624.19;6147559;23;20445;-69
2021/12/31 00:30:10;;;;;;;7.68;6.10;;;;;;;4.22;100.00;96618.22;6147525;23;20015;-69
2021/12/31 00:32:36;;;;;;;5.65;5.15;;;;;;;4.19;100.00;96613.16;6147502;23;20608;-69
2021/12/31 00:35:02;;;;;;;8.35;5.75;;;;;;;4.15;100.00;96618.53;6147210;23;20026;-69
2021/12/31 00:37:29;;;;;;;9.40;6.15;;;;;;;4.11;100.00;96616.19;6147853;23;20033;-69
2021/12/31 00:39:55;;;;;;;16.38;8.65;;;;;;;4.08;100.00;96616.31;6148723;23;20017;-69
2021/12/31 00:42:20;;;;;;;11.13;8.43;;;;;;;4.05;100.00;96617.31;6148398;23;20006;-68
2021/12/31 00:44:46;;;;;;;8.32;6.90;;;;;;;3.96;100.00;96617.78;6148950;23;20009;-69
2021/12/31 00:47:11;;;;;;;6.93;6.22;;;;;;;3.88;100.00;96620.81;6148777;23;20692;-68
2021/12/31 00:49:36;;;;;;;6.88;6.18;;;;;;;3.80;100.00;96620.31;6149644;23;20014;-69
2021/12/31 00:52:02;;;;;;;7.22;6.07;;;;;;;3.77;100.00;96618.75;6149854;23;20012;-69
2021/12/31 00:54:27;;;;;;;7.88;5.68;;;;;;;3.78;100.00;96614.34;6150077;23;20009;-69
2021/12/31 00:56:59;;;;;;;8.98;5.20;;;;;;;3.71;100.00;96619.88;6150004;23;20055;-69
2021/12/31 00:59:24;;;;;;;6.05;5.40;;;;;;;3.62;100.00;96622.94;6150116;23;20033;-69
2021/12/31 01:01:50;;;;;;;6.55;5.88;;;;;;;3.50;100.00;96626.16;6149595;23;20001;-68
2021/12/31 01:04:15;;;;;;;5.72;5.22;;;;;;;3.43;100.00;96629.06;6124480;23;20002;-68
2021/12/31 01:06:41;;;;;;;7.00;6.18;;;;;;;3.38;100.00;96630.19;6179785;23;20001;-68
2021/12/31 01:09:06;;;;;;;6.00;5.40;;;;;;;3.38;100.00;96631.03;6179708;23;20016;-69
2021/12/31 01:11:33;;;;;;;7.75;6.20;;;;;;;3.37;100.00;96625.91;6179554;23;20076;-69
2021/12/31 01:14:02;;;;;;;11.10;8.27;;;;;;;3.32;100.00;96623.53;6179495;23;20001;-68
2021/12/31 01:16:37;;;;;;;10.70;7.50;;;;;;;3.27;100.00;96622.91;6179718;23;20012;-69
2021/12/31 01:21:28;;;;;;;7.15;6.18;;;;;;;3.19;100.00;96622.41;6180112;23;20005;-69
2021/12/31 01:23:57;;;;;;;6.85;5.82;;;;;;;3.11;100.00;96620.19;6179669;23;20030;-69
2021/12/31 01:26:23;;;;;;;6.75;5.50;;;;;;;3.06;100.00;96625.63;6179727;23;20005;-68
2021/12/31 01:28:48;;;;;;;5.40;4.95;;;;;;;3.01;100.00;96632.81;6178837;23;20326;-68
2021/12/31 01:31:13;;;;;;;5.82;5.32;;;;;;;2.96;100.00;96630.41;6179747;23;20433;-68
2021/12/31 01:33:39;;;;;;;6.70;5.55;;;;;;;2.95;100.00;96625.25;6179482;23;20401;-69
2021/12/31 01:36:05;;;;;;;6.53;5.82;;;;;;;2.92;100.00;96626.25;6179711;23;20016;-68
2021/12/31 01:38:31;;;;;;;7.30;5.10;;;;;;;2.92;100.00;96630.63;6153142;23;20020;-68
2021/12/31 01:40:56;;;;;;;5.30;4.90;;;;;;;2.90;100.00;96635.91;6179606;23;20436;-68
2021/12/31 01:43:22;;;;;;;7.63;4.22;;;;;;;2.90;100.00;96632.44;6179711;23;19997;-68
2021/12/31 01:45:53;;;;;;;5.38;4.28;;;;;;;2.88;100.00;96634.28;6179388;23;20066;-69
2021/12/31 01:51:13;;;;;;;6.15;5.40;;;;;;;2.79;100.00;96631.19;6191655;23;20337;-68
2021/12/31 01:53:39;;;;;;;5.88;5.22;;;;;;;2.79;100.00;96635.53;6179081;23;20008;-68
2021/12/31 01:56:05;;;;;;;5.65;5.15;;;;;;;2.75;100.00;96636.59;6179839;23;20005;-69
2021/12/31 01:58:30;;;;;;;6.82;5.90;;;;;;;2.70;100.00;96634.19;6178951;23;20015;-68
2021/12/31 02:01:03;;;;;;;5.32;4.82;;;;;;;2.64;100.00;96639.69;6179480;23;20084;-69
2021/12/31 02:03:31;;;;;;;5.32;4.85;;;;;;;2.61;100.00;96642.44;6179181;23;20017;-68
2021/12/31 02:05:57;;;;;;;5.50;5.03;;;;;;;2.60;100.00;96638.97;6179255;23;20046;-68
2021/12/31 02:08:22;;;;;;;4.32;3.92;;;;;;;2.60;100.00;96632.94;6179465;23;20429;-69
2021/12/31 02:10:51;;;;;;;4.85;4.45;;;;;;;2.58;100.00;96639.06;6179087;23;20005;-68
2021/12/31 02:13:17;;;;;;;5.60;5.10;;;;;;;2.65;100.00;96634.44;6179452;23;20052;-68
2021/12/31 02:15:44;;;;;;;9.50;8.13;;;;;;;2.66;100.00;96624.84;6179035;23;20001;-68
2021/12/31 02:18:10;;;;;;;6.22;5.68;;;;;;;2.63;100.00;96630.22;6179405;23;20348;-68
2021/12/31 02:20:41;;;;;;;5.97;5.57;;;;;;;2.55;100.00;96627.94;6179555;23;20088;-68
2021/12/31 02:23:23;;;;;;;5.50;5.10;;;;;;;2.51;100.00;96627.22;6179358;23;20008;-69
2021/12/31 02:25:49;;;;;;;5.25;4.85;;;;;;;2.53;100.00;96628.00;6178755;23;20009;-68
2021/12/31 02:28:15;;;;;;;4.68;4.38;;;;;;;2.54;100.00;96629.72;6179660;23;20058;-69
2021/12/31 02:30:42;;;;;;;4.70;4.32;;;;;;;2.48;100.00;96629.97;6179228;23;20036;-69
2021/12/31 02:33:07;;;;;;;5.05;4.57;;;;;;;2.40;100.00;96634.69;6179664;23;20031;-68
2021/12/31 02:35:33;;;;;;;6.60;4.30;;;;;;;2.42;100.00;96627.66;6179437;23;20421;-68
2021/12/31 02:37:59;;;;;;;4.93;4.45;;;;;;;2.39;100.00;96622.59;6179071;23;20035;-68
2021/12/31 02:40:28;;;;;;;4.70;4.40;;;;;;;2.37;100.00;96634.81;6179361;23;20005;-69
2021/12/31 02:42:53;;;;;;;4.22;3.92;;;;;;;2.30;100.00;96618.66;6179182;23;20008;-69
2021/12/31 02:45:21;;;;;;;4.18;3.80;;;;;;;2.30;100.00;96621.25;6179167;23;20005;-69
2021/12/31 02:47:46;;;;;;;4.68;4.30;;;;;;;2.27;100.00;96617.03;6179258;23;20032;-69
2021/12/31 02:50:15;;;;;;;4.28;3.97;;;;;;;2.28;100.00;96605.72;6179292;23;20005;-69
2021/12/31 02:52:41;;;;;;;5.35;3.78;;;;;;;2.29;100.00;96610.00;6179339;23;20002;-68
2021/12/31 02:55:08;;;;;;;4.25;3.85;;;;;;;2.25;100.00;96626.66;6179509;23;20025;-68
2021/12/31 02:57:34;;;;;;;3.92;3.42;;;;;;;2.19;100.00;96616.53;6178678;23;20001;-68
2021/12/31 03:00:00;;;;;;;4.30;4.00;;;;;;;2.15;100.00;96610.63;6152904;22;20016;-69
2021/12/31 03:02:26;;;;;;;3.97;3.67;;;;;;;2.12;100.00;96613.34;6179085;23;20001;-68
2021/12/31 03:04:52;;;;;;;5.43;3.28;;;;;;;2.09;100.00;96607.44;6144686;22;20013;-68
2021/12/31 03:07:20;;;;;;;4.40;4.07;;;;;;;2.09;100.00;96608.28;6149360;23;20050;-68
2021/12/31 03:09:48;;;;;;;4.55;3.60;;;;;;;2.10;100.00;96603.94;6149467;23;20001;-69
2021/12/31 03:12:17;;;;;;;4.30;4.00;;;;;;;2.09;100.00;96597.03;6149480;23;20033;-69
2021/12/31 03:14:45;;;;;;;4.43;4.03;;;;;;;2.07;100.00;96596.28;6123577;23;20002;-68
2021/12/31 03:17:12;;;;;;;5.30;4.80;;;;;;;2.04;100.00;96586.03;6149506;23;20056;-69
2021/12/31 03:19:37;;;;;;;5.32;4.82;;;;;;;1.99;100.00;96605.25;6149082;23;20009;-69
2021/12/31 03:22:04;;;;;;;6.50;4.50;;;;;;;1.95;100.00;96598.50;6149717;23;20452;-69
2021/12/31 03:24:29;;;;;;;6.20;4.07;;;;;;;1.92;100.00;96600.38;6149342;23;20002;-68
2021/12/31 03:26:55;;;;;;;4.95;4.32;;;;;;;1.90;100.00;96602.22;6149360;23;20016;-68
2021/12/31 03:29:21;;;;;;;5.85;4.63;;;;;;;1.88;100.00;96604.88;6149295;23;20483;-68
2021/12/31 03:31:46;;;;;;;4.38;3.97;;;;;;;1.91;100.00;96606.50;6149214;23;20001;-68
2021/12/31 03:34:14;;;;;;;6.60;5.22;;;;;;;1.90;100.00;96610.00;6149193;23;20012;-68
2021/12/31 03:36:43;;;;;;;6.43;5.80;;;;;;;1.87;100.00;96616.16;6149260;23;20445;-69
2021/12/31 03:39:09;;;;;;;6.93;5.78;;;;;;;1.83;100.00;96610.28;6149169;23;20013;-69
2021/12/31 03:41:36;;;;;;;5.00;4.55;;;;;;;1.81;100.00;96606.03;6149126;23;20006;-69
2021/12/31 03:44:02;;;;;;;6.10;4.65;;;;;;;1.75;100.00;96606.31;6149602;23;20353;-69
2021/12/31 03:46:28;;;;;;;4.43;4.07;;;;;;;1.74;100.00;96609.81;6149284;23;20009;-69
2021/12/31 03:48:53;;;;;;;4.28;3.97;;;;;;;1.75;100.00;96603.72;6149072;23;20028;-69
2021/12/31 03:51:18;;;;;;;5.05;4.43;;;;;;;1.73;100.00;96605.53;6149077;23;20005;-69
2021/12/31 03:53:44;;;;;;;6.30;4.03;;;;;;;1.67;100.00;96602.28;6149052;23;20013;-69
2021/12/31 03:56:09;;;;;;;7.80;4.25;;;;;;;1.66;100.00;96607.53;6149193;23;20063;-69
2021/12/31 03:58:35;;;;;;;4.88;4.50;;;;;;;1.66;100.00;96602.34;6149292;23;20092;-68
2021/12/31 04:01:00;;;;;;;4.38;4.07;;;;;;;1.63;100.00;96603.31;6149185;23;20077;-69
2021/12/31 04:03:26;;;;;;;5.60;5.18;;;;;;;1.61;100.00;96605.13;6149087;23;20001;-69
2021/12/31 04:05:51;;;;;;;5.30;4.32;;;;;;;1.60;100.00;96606.03;6169007;23;20052;-68
2021/12/31 04:08:17;;;;;;;4.80;4.40;;;;;;;1.59;100.00;96604.34;6178962;23;20088;-69
2021/12/31 04:10:43;;;;;;;5.88;5.38;;;;;;;1.58;100.00;96600.06;6178895;23;20065;-68
2021/12/31 04:13:09;;;;;;;7.65;6.88;;;;;;;1.56;100.00;96597.56;6178633;23;20008;-68
2021/12/31 04:15:34;;;;;;;8.18;6.80;;;;;;;1.55;100.00;96595.88;6178714;23;20023;-69
2021/12/31 04:18:00;;;;;;;7.70;7.00;;;;;;;1.50;100.00;96592.59;6178373;23;20009;-69
2021/12/31 04:20:39;;;;;;;10.38;9.35;;;;;;;1.51;100.00;96594.28;6178686;23;20009;-69
2021/12/31 04:23:11;;;;;;;10.52;9.45;;;;;;;1.59;100.00;96586.19;6179172;23;20452;-69
2021/12/31 04:25:37;;;;;;;9.52;8.50;;;;;;;1.55;100.00;96585.47;6179958;23;20005;-69
2021/12/31 04:28:04;;;;;;;8.93;8.13;;;;;;;1.53;100.00;96581.25;6179174;23;20560;-69
2021/12/31 04:30:29;;;;;;;9.80;8.80;;;;;;;1.56;100.00;96587.16;6179420;23;20032;-69
2021/12/31 04:32:55;;;;;;;9.50;8.70;;;;;;;1.57;100.00;96572.41;6179085;23;20044;-69
2021/12/31 04:35:20;;;;;;;7.80;7.00;;;;;;;1.53;100.00;96578.66;6179499;23;20005;-69
2021/12/31 04:37:46;;;;;;;6.97;6.28;;;;;;;1.50;100.00;96576.19;6179698;23;20009;-68
2021/12/31 04:40:13;;;;;;;5.43;5.03;;;;;;;1.49;100.00;96575.34;6179883;23;20005;-69
2021/12/31 04:42:40;;;;;;;7.38;6.07;;;;;;;1.55;100.00;96569.06;6179513;22;20008;-69
2021/12/31 04:45:07;;;;;;;7.97;5.60;;;;;;;1.54;100.00;96559.56;6179477;22;20009;-69
2021/12/31 04:47:32;;;;;;;5.95;5.45;;;;;;;1.50;100.00;96563.22;6179941;23;20005;-69
2021/12/31 04:49:57;;;;;;;5.13;4.72;;;;;;;1.43;100.00;96566.03;6178454;23;20013;-69
2021/12/31 04:52:23;;;;;;;5.68;4.40;;;;;;;1.42;100.00;96564.34;6179802;23;20025;-69
2021/12/31 04:54:48;;;;;;;5.72;5.18;;;;;;;1.45;100.00;96567.75;6179740;23;20395;-69
2021/12/31 04:57:13;;;;;;;8.65;6.30;;;;;;;1.41;100.00;96560.06;6180534;23;20084;-69
2021/12/31 04:59:39;;;;;;;6.53;4.63;;;;;;;1.37;100.00;96561.13;6179562;23;20005;-68
2021/12/31 05:02:04;;;;;;;5.10;4.70;;;;;;;1.33;100.00;96554.38;6179875;23;20050;-67
2021/12/31 05:04:29;;;;;;;5.25;4.85;;;;;;;1.26;100.00;96553.78;6179372;23;20011;-67
2021/12/31 05:06:55;;;;;;;4.95;4.55;;;;;;;1.26;100.00;96565.94;6179376;23;20012;-67
2021/12/31 05:09:20;;;;;;;4.00;3.70;;;;;;;1.32;100.00;96565.66;6152921;23;20138;-67
2021/12/31 05:11:45;;;;;;;3.95;3.67;;;;;;;1.29;100.00;96584.78;6179319;22;20001;-67
2021/12/31 05:14:11;;;;;;;4.07;3.67;;;;;;;1.29;100.00;96602.13;6179270;23;20388;-68
2021/12/31 05:16:37;;;;;;;7.68;3.97;;;;;;;1.27;100.00;96599.56;6178994;23;20001;-68
2021/12/31 05:19:03;;;;;;;4.47;4.07;;;;;;;1.29;100.00;96607.31;6179093;23;20009;-67
2021/12/31 05:21:29;;;;;;;3.40;2.92;;;;;;;1.32;100.00;96604.59;6178789;23;20100;-68
2021/12/31 05:23:55;;;;;;;3.30;3.10;;;;;;;1.35;100.00;96619.19;6179852;22;20005;-68
2021/12/31 05:26:20;;;;;;;3.63;3.33;;;;;;;1.36;100.00;96611.34;6179374;23;20005;-67
2021/12/31 05:28:46;;;;;;;3.08;2.88;;;;;;;1.43;100.00;96617.94;6179429;23;20005;-67
2021/12/31 05:31:11;;;;;;;3.40;3.20;;;;;;;1.38;100.00;96619.06;6179561;23;20394;-68
2021/12/31 05:33:36;;;;;;;3.22;3.03;;;;;;;1.31;100.00;96610.69;6179365;23;20132;-67
2021/12/31 05:36:02;;;;;;;3.58;3.30;;;;;;;1.26;100.00;96612.63;6179288;23;20008;-67
2021/12/31 05:38:27;;;;;;;2.83;2.72;;;;;;;1.27;100.00;96601.34;6179306;23;20084;-67
2021/12/31 05:40:53;;;;;;;3.33;3.13;;;;;;;1.32;100.00;96602.00;6179512;23;20079;-67
2021/12/31 05:43:18;;;;;;;3.78;3.20;;;;;;;1.28;100.00;96595.25;6179899;23;20043;-67
2021/12/31 05:45:44;;;;;;;3.17;2.97;;;;;;;1.25;100.00;96596.19;6179456;23;20005;-68
2021/12/31 05:48:09;;;;;;;3.47;3.28;;;;;;;1.21;100.00;96591.19;6179245;23;20006;-67
2021/12/31 05:50:34;;;;;;;3.58;3.28;;;;;;;1.20;100.00;96585.16;6179475;23;20005;-67
2021/12/31 05:53:01;;;;;;;6.72;3.38;;;;;;;1.14;100.00;96575.88;6179434;23;20001;-67
2021/12/31 05:55:27;;;;;;;3.85;3.17;;;;;;;1.10;100.00;96573.47;6179441;23;20004;-67
2021/12/31 05:57:55;;;;;;;3.35;3.10;;;;;;;1.05;100.00;96576.25;6179389;23;20013;-67
2021/12/31 06:00:21;;;;;;;4.32;3.92;;;;;;;1.08;100.00;96581.31;6179489;23;20005;-67
2021/12/31 06:02:47;;;;;;;6.50;3.97;;;;;;;1.04;100.00;96584.94;6179336;23;20059;-68
2021/12/31 06:05:12;;;;;;;4.78;4.28;;;;;;;1.04;100.00;96592.72;6179085;23;20087;-67
2021/12/31 06:07:37;;;;;;;5.10;4.70;;;;;;;1.06;100.00;96587.47;6179345;23;20073;-67
2021/12/31 06:10:03;;;;;;;7.07;5.38;;;;;;;1.08;100.00;96589.09;6179481;23;20009;-67
2021/12/31 06:12:28;;;;;;;13.60;11.50;;;;;;;1.16;100.00;96593.13;6179562;23;20008;-67
2021/12/31 06:14:58;;;;;;;10.50;9.07;;;;;;;1.14;100.00;96578.47;6179203;23;20001;-67
2021/12/31 06:17:26;;;;;;;8.63;7.82;;;;;;;1.13;100.00;96579.38;6179479;23;20009;-67
2021/12/31 06:19:53;;;;;;;8.60;7.80;;;;;;;1.17;100.00;96589.63;6179704;23;20013;-67
2021/12/31 06:22:19;;;;;;;9.75;7.72;;;;;;;1.08;100.00;96581.31;6178233;23;20095;-67
2021/12/31 06:24:44;;;;;;;7.07;5.93;;;;;;;1.19;100.00;96577.44;6179189;23;20001;-67
2021/12/31 06:27:10;;;;;;;7.13;6.47;;;;;;;1.25;100.00;96575.44;6179377;23;20462;-67
2021/12/31 06:29:35;;;;;;;9.55;8.65;;;;;;;1.20;100.00;96579.13;6179103;23;19997;-67
2021/12/31 06:32:00;;;;;;;6.18;5.57;;;;;;;1.23;100.00;96579.84;6177780;23;20013;-67
2021/12/31 06:34:26;;;;;;;7.00;4.88;;;;;;;1.28;100.00;96575.31;6152498;22;20009;-64
2021/12/31 06:36:51;;;;;;;5.13;4.05;;;;;;;1.28;100.00;96587.47;6178533;23;20001;-65
2021/12/31 06:39:17;;;;;;;4.80;4.40;;;;;;;1.23;100.00;96574.66;6179136;23;20015;-65
2021/12/31 06:41:42;;;;;;;5.25;4.78;;;;;;;1.20;100.00;96573.94;6178792;23;20468;-65
2021/12/31 06:44:09;;;;;;;5.45;4.95;;;;;;;1.13;100.00;96575.97;6179078;23;20016;-65
2021/12/31 06:46:34;;;;;;;5.38;4.88;;;;;;;1.16;100.00;96587.94;6177956;23;20009;-65
2021/12/31 06:48:59;;;;;;;6.82;6.25;;;;;;;1.51;100.00;96589.09;6178826;23;20009;-66
2021/12/31 06:51:25;;;;;;;6.22;5.72;;;;;;;1.41;100.00;96582.59;6179167;23;20039;-65
2021/12/31 06:53:51;;;;;;;7.20;5.22;;;;;;;1.32;100.00;96594.22;6179146;23;20068;-64
2021/12/31 06:56:16;;;;;;;5.57;5.10;;;;;;;1.24;100.00;96585.91;6179135;23;20012;-64
2021/12/31 06:58:43;;;;;;;6.20;5.70;;;;;;;1.13;100.00;96594.13;6179281;22;20026;-64
2021/12/31 07:01:08;;;;;;;6.13;5.55;;;;;;;1.07;100.00;96596.94;6179039;23;20031;-66
2021/12/31 07:03:34;;;;;;;7.45;6.80;;;;;;;1.09;100.00;96589.94;6179438;23;20420;-65
2021/12/31 07:05:59;;;;;;;11.38;10.27;;;;;;;1.04;100.00;96589.28;6178953;23;20067;-66
2021/12/31 07:08:25;;;;;;;9.05;8.20;;;;;;;1.05;100.00;96590.97;6179526;23;20005;-66
2021/12/31 07:10:50;;;;;;;10.13;9.23;;;;;;;1.06;100.00;96590.06;6179088;23;20005;-66
2021/12/31 07:13:15;;;;;;;9.35;8.50;;;;;;;1.05;100.00;96597.00;6178864;23;20008;-66
2021/12/31 07:15:44;;;;;;;9.23;8.35;;;;;;;1.09;100.00;96603.75;6178765;23;20032;-66
2021/12/31 07:18:10;;;;;;;9.57;8.68;;;;;;;1.09;100.00;96608.94;6152405;23;20009;-65
2021/12/31 07:20:36;;;;;;;13.05;11.73;;;;;;;1.06;100.00;96608.22;6178917;23;20005;-65
2021/12/31 07:23:10;;;;;;;23.85;21.27;;;;;;;1.03;100.00;96619.56;6178865;23;20391;-65
2021/12/31 07:25:36;;;;;;;15.10;13.70;;;;;;;1.00;100.00;96610.16;6179115;23;20084;-66
2021/12/31 07:28:02;;;;;;;14.32;12.93;;;;;;;1.00;100.00;96630.06;6178912;23;20012;-66
2021/12/31 07:30:28;;;;;;;19.25;15.15;;;;;;;1.01;100.00;96631.75;6152725;23;20009;-66
2021/12/31 07:32:53;;;;;;;21.20;17.77;;;;;;;0.98;100.00;96624.06;6178863;23;20079;-66
2021/12/31 07:35:19;;;;;;;24.63;21.75;;;;;;;0.94;100.00;96627.69;6178712;23;20005;-66
2021/12/31 07:37:44;;;;;;;26.75;23.27;;;;;;;0.95;100.00;96621.59;6178112;23;20070;-67
2021/12/31 07:40:12;;;;;;;26.63;23.77;;;;;;;0.99;100.00;96633.53;6178297;23;20367;-67
2021/12/31 07:42:38;;;;;;;26.85;23.42;;;;;;;1.04;100.00;96626.44;6177733;23;19997;-68
2021/12/31 07:45:05;;;;;;;24.38;21.98;;;;;;;1.11;100.00;96617.50;6152097;23;20013;-66
2021/12/31 07:47:31;;;;;;;22.30;20.02;;;;;;;1.12;100.00;96618.38;6178529;23;20001;-67
2021/12/31 07:49:56;;;;;;;23.27;20.83;;;;;;;1.14;100.00;96617.38;6178505;23;20353;-66
2021/12/31 07:52:22;;;;;;;23.13;19.10;;;;;;;1.12;100.00;96624.38;6178272;23;20009;-66
2021/12/31 07:54:47;;;;;;;19.63;17.73;;;;;;;1.14;100.00;96619.97;6178244;23;20074;-67
2021/12/31 07:57:13;;;;;;;19.58;17.55;;;;;;;1.14;100.00;96627.75;6177354;23;20006;-65
2021/12/31 07:59:38;;;;;;;22.80;20.60;;;;;;;1.20;100.00;96626.69;6177521;23;20490;-66
2021/12/31 08:02:04;;;;;;;22.58;20.30;;;;;;;1.20;100.00;96629.28;6177633;23;20012;-64
2021/12/31 08:04:29;;;;;;;20.40;18.50;;;;;;;1.21;100.00;96627.50;6177675;23;20433;-65
2021/12/31 08:06:55;;;;;;;27.20;24.60;;;;;;;1.24;100.00;96632.59;6177894;23;20055;-65
2021/12/31 08:09:20;;;;;;;25.27;22.67;;;;;;;1.21;100.00;96640.47;6178893;23;20009;-66
2021/12/31 08:11:45;;;;;;;27.33;19.55;;;;;;;1.20;100.00;96641.38;6178118;23;20005;-62
2021/12/31 08:14:11;;;;;;;21.05;18.98;;;;;;;1.19;100.00;96639.69;6174601;23;20437;-63
2021/12/31 08:16:36;;;;;;;20.73;18.92;;;;;;;1.23;100.00;96642.13;6177634;23;20073;-65
2021/12/31 08:19:02;;;;;;;15.85;14.45;;;;;;;1.34;100.00;96638.28;6177408;23;20011;-63
2021/12/31 08:21:27;;;;;;;17.73;11.77;;;;;;;1.41;100.00;96640.53;6177562;23;20013;-63
2021/12/31 08:23:52;;;;;;;13.82;12.57;;;;;;;1.43;100.00;96638.72;6175656;23;20030;-66
2021/12/31 08:26:18;;;;;;;15.43;14.00;;;;;;;1.43;100.00;96638.72;6178290;23;20047;-64
2021/12/31 08:28:43;;;;;;;15.25;13.98;;;;;;;1.46;100.00;96637.75;6176122;23;20001;-65
2021/12/31 08:31:09;;;;;;;14.32;13.02;;;;;;;1.51;100.00;96648.78;6178458;23;20005;-64
2021/12/31 08:33:34;;;;;;;13.75;12.45;;;;;;;1.78;100.00;96650.31;6177760;23;20003;-65
2021/12/31 08:36:00;;;;;;;14.45;13.15;;;;;;;1.76;100.00;96644.34;6176659;23;20062;-65
2021/12/31 08:38:25;;;;;;;15.23;13.82;;;;;;;1.75;100.00;96643.47;6174593;23;20448;-65
2021/12/31 08:40:52;;;;;;;15.73;14.23;;;;;;;1.74;100.00;96638.38;6176414;23;20005;-65
2021/12/31 08:43:17;;;;;;;16.70;15.10;;;;;;;1.79;100.00;96647.66;6175752;23;20039;-66
2021/12/31 08:45:43;;;;;;;16.88;15.45;;;;;;;1.83;100.00;96654.41;6176587;23;20431;-63
2021/12/31 08:48:09;;;;;;;17.40;15.70;;;;;;;1.92;100.00;96655.78;6175510;23;20001;-63
2021/12/31 08:50:35;;;;;;;23.40;21.40;;;;;;;1.99;100.00;96657.19;6176648;23;20009;-65
2021/12/31 08:53:01;;;;;;;22.42;20.23;;;;;;;2.03;100.00;96663.13;6176458;23;20025;-64
2021/12/31 08:55:27;;;;;;;22.67;20.65;;;;;;;2.07;100.00;96669.00;6176570;23;20051;-64
2021/12/31 08:57:52;;;;;;;23.50;21.27;;;;;;;2.13;100.00;96671.38;6176479;23;20383;-64
2021/12/31 09:00:18;;;;;;;26.55;23.92;;;;;;;2.18;100.00;96686.75;6176689;23;20076;-64
2021/12/31 09:02:45;;;;;;;32.80;29.42;;;;;;;2.24;100.00;96682.13;6178121;23;20025;-64
2021/12/31 09:05:12;;;;;;;29.50;26.13;;;;;;;2.27;100.00;96692.38;6177748;23;20017;-65
2021/12/31 09:07:37;;;;;;;26.45;23.92;;;;;;;2.24;100.00;96695.13;6177871;23;20035;-63
2021/12/31 09:10:04;;;;;;;25.48;22.92;;;;;;;2.20;100.00;96696.16;6179339;23;20349;-63
2021/12/31 09:12:29;;;;;;;28.65;24.52;;;;;;;2.18;100.00;96687.59;6179556;23;20008;-64
2021/12/31 09:14:55;;;;;;;25.58;23.13;;;;;;;2.18;100.00;96684.13;6179565;23;20001;-66
2021/12/31 09:17:22;;;;;;;26.00;23.60;;;;;;;2.18;100.00;96676.34;6179041;23;20001;-63
2021/12/31 09:19:48;;;;;;;24.75;22.40;;;;;;;2.17;100.00;96696.31;6179620;23;20083;-63
2021/12/31 09:22:14;;;;;;;28.63;25.55;;;;;;;2.13;100.00;96684.34;6179545;23;20004;-62
2021/12/31 09:24:39;;;;;;;22.52;20.10;;;;;;;2.18;100.00;96695.38;6153382;23;20016;-62
2021/12/31 09:27:05;;;;;;;23.25;20.80;;;;;;;2.19;100.00;96691.88;6177209;23;20013;-64
2021/12/31 09:29:30;;;;;;;21.45;19.17;;;;;;;2.13;100.00;96680.00;6174675;23;20015;-63
2021/12/31 09:31:55;;;;;;;22.30;20.00;;;;;;;2.11;100.00;96675.78;6177698;23;20445;-63
2021/12/31 09:34:21;;;;;;;16.60;14.98;;;;;;;2.12;100.00;96670.50;6177035;23;20424;-63
2021/12/31 09:36:46;;;;;;;15.65;13.98;;;;;;;2.21;100.00;96679.66;6175181;23;20001;-65
2021/12/31 09:39:12;;;;;;;19.15;17.15;;;;;;;2.35;100.00;96691.22;6177265;23;20055;-67
2021/12/31 09:41:37;;;;;;;18.15;16.20;;;;;;;2.86;100.00;96695.03;6176706;23;20013;-65
2021/12/31 09:44:03;;;;;;;18.20;16.58;;;;;;;3.38;100.00;96713.50;6173770;23;20009;-67
2021/12/31 09:46:28;;;;;;;20.38;18.42;;;;;;;3.83;100.00;96727.84;6178127;23;20066;-67
2021/12/31 09:48:54;;;;;;;21.23;19.13;;;;;;;4.30;100.00;96723.78;6178468;23;20013;-67
2021/12/31 09:51:20;;;;;;;24.98;22.42;;;;;;;4.74;100.00;96721.56;6175195;23;20495;-65
2021/12/31 09:53:45;;;;;;;28.77;25.35;;;;;;;5.18;100.00;96727.09;6177510;23;20001;-65
2021/12/31 09:56:13;;;;;;;25.27;22.75;;;;;;;5.57;100.00;96711.03;6178791;23;20005;-67
2021/12/31 09:58:39;;;;;;;15.25;13.73;;;;;;;5.81;100.00;96704.47;6152421;23;20009;-67
2021/12/31 10:01:07;;;;;;;9.85;8.95;;;;;;;6.04;100.00;96710.19;6178105;23;20011;-68
2021/12/31 10:03:34;;;;;;;17.92;16.23;;;;;;;6.13;100.00;96709.69;6178528;23;20008;-66
2021/12/31 10:06:01;;;;;;;14.18;12.88;;;;;;;6.24;100.00;96722.94;6176210;23;20024;-65
2021/12/31 10:08:29;;;;;;;12.95;11.75;;;;;;;6.52;100.00;96721.34;6178003;23;20005;-68
2021/12/31 10:11:10;;;;;;;8.50;7.63;;;;;;;6.72;100.00;96725.38;6178791;23;20438;-68
2021/12/31 10:13:39;;;;;;;6.30;5.80;;;;;;;6.98;100.00;96722.13;6176241;23;20012;-70
2021/12/31 10:16:06;;;;;;;6.50;6.00;;;;;;;7.30;100.00;96730.59;6177893;23;20009;-72
2021/12/31 10:18:36;;;;;;;5.47;5.07;;;;;;;7.34;100.00;96730.41;6151271;23;20131;-69
2021/12/31 10:21:04;;;;;;;3.50;3.20;;;;;;;7.37;100.00;96727.56;6175399;23;20005;-69
2021/12/31 10:23:29;;;;;;;3.47;3.28;;;;;;;7.40;100.00;96724.75;6177786;23;20425;-74
2021/12/31 10:26:13;;;;;;;7.38;5.90;;;;;;;7.67;100.00;96730.03;6177325;23;20001;-71
2021/12/31 10:28:55;;;;;;;7.93;5.60;;;;;;;8.02;100.00;96732.13;6176280;23;20008;-71
2021/12/31 10:31:21;;;;;;;7.28;6.57;;;;;;;8.39;100.00;96735.91;6178022;23;20001;-67
2021/12/31 10:33:48;;;;;;;6.57;5.10;;;;;;;8.68;99.81;96733.13;6176190;23;20008;-65
2021/12/31 10:36:33;;;;;;;6.45;5.03;;;;;;;8.88;98.65;96731.75;6178941;23;20001;-68
2021/12/31 10:39:00;;;;;;;7.20;5.45;;;;;;;9.05;95.17;96725.34;6175674;23;20456;-66
2021/12/31 10:41:25;;;;;;;4.88;4.47;;;;;;;9.32;91.69;96725.19;6174436;23;20001;-67
2021/12/31 10:43:59;;;;;;;9.05;5.60;;;;;;;9.64;92.98;96730.88;6172463;23;20016;-66
2021/12/31 10:46:25;;;;;;;7.75;6.63;;;;;;;9.76;91.66;96727.38;6173756;23;20013;-65
2021/12/31 10:48:54;;;;;;;7.93;6.25;;;;;;;9.85;92.03;96720.59;6174479;23;20467;-65
2021/12/31 10:51:43;;;;;;;6.97;6.28;;;;;;;9.93;88.88;96723.50;6176696;23;20084;-65
2021/12/31 10:54:32;;;;;;;6.72;6.03;;;;;;;10.08;91.66;96718.91;6174748;23;20070;-65
2021/12/31 10:56:59;;;;;;;6.05;4.15;;;;;;;10.23;92.32;96722.16;6175415;23;20012;-65
2021/12/31 10:59:25;;;;;;;8.35;5.63;;;;;;;10.39;93.53;96727.16;6175199;23;20005;-65
2021/12/31 11:01:51;;;;;;;7.53;6.38;;;;;;;10.65;89.10;96728.78;6177060;23;20440;-68
2021/12/31 11:04:21;;;;;;;9.15;6.75;;;;;;;11.04;85.80;96731.94;6149201;23;20403;-67
2021/12/31 11:06:46;;;;;;;6.55;5.88;;;;;;;11.17;87.11;96735.31;6174646;23;20114;-66
2021/12/31 11:09:14;;;;;;;8.10;4.28;;;;;;;11.02;83.19;96725.94;6178566;23;20606;-65
2021/12/31 11:11:42;;;;;;;4.55;4.07;;;;;;;10.93;82.43;96718.75;6149599;22;20432;-61
2021/12/31 11:14:08;;;;;;;3.60;3.30;;;;;;;10.91;83.09;96707.50;6177788;23;20074;-64
2021/12/31 11:16:38;;;;;;;4.03;3.65;;;;;;;11.02;84.83;96694.34;6176848;23;20005;-63
2021/12/31 11:19:03;;;;;;;3.83;3.53;;;;;;;11.25;81.06;96692.50;6175565;23;20009;-63
2021/12/31 11:21:29;;;;;;;5.35;4.70;;;;;;;11.45;78.89;96687.44;6178106;23;20073;-61
2021/12/31 11:23:54;;;;;;;2.90;2.70;;;;;;;11.69;79.12;96673.25;6152096;23;20001;-61
2021/12/31 11:26:28;;;;;;;2.60;2.40;;;;;;;11.80;75.04;96667.09;6178970;23;20054;-61
2021/12/31 11:28:55;;;;;;;2.65;2.45;;;;;;;12.26;76.83;96651.91;6177881;23;20441;-64
2021/12/31 11:31:23;;;;;;;2.17;2.08;;;;;;;12.64;75.31;96642.56;6149994;22;20016;-61
2021/12/31 11:33:58;;;;;;;6.40;2.00;;;;;;;13.24;73.59;96640.97;6177032;23;20016;-62